Nearby METAR Reports

 

LEAL - Alicante/El Alte, Spain
Distance from station: SO 52km
Actualización: 23/06/2017 17:00
Despejado
Despejado
 Viento del SSE
Viento: SSE 9 km/h
Temperatura: 30°C
Heat Index: 31°C
Rocío: 19°C
Humedad: 52%
Barómetro: 1019 hPa
Resumen: Despejado
Visibility: greater than 10 km
2017/06/23 15:00 LEAL 231500Z 15005KT 090V220 CAVOK 30/19 Q1019 NOSIG
LEVC - Valencia (civ/Mi, Spain
Distance from station: NNO 107km
Actualización: 23/06/2017 17:00
Few Clouds
Few Clouds
 Viento del E
Viento: E 17 km/h
Temperatura: 32°C
Rocío: 14°C
Humedad: 33%
Barómetro: 1018 hPa
Clouds: Few Clouds
Visibility: 10 km
Cloud details: Few Clouds 1219 m
2017/06/23 15:00 LEVC 231500Z 10009KT 060V140 9999 FEW040 32/14 Q1018 NOSIG
 
LELC - San Javier(Mil/C, Spain
Distance from station: SO 109km
Actualización: 23/06/2017 17:00
Despejado
Despejado
 Viento del S
Viento: S 17 km/h
Temperatura: 33°C
Rocío: 14°C
Humedad: 32%
Barómetro: 1018 hPa
Resumen: Despejado
Visibility: greater than 10 km
2017/06/23 15:00 LELC 231500Z 18009KT 120V230 CAVOK 33/14 Q1018 NOSIG
LERI - Alcantarilla(Sp-, Spain
Distance from station: SO 120km
Actualización: 23/06/2017 17:00
Despejado
Despejado
 Viento del SE
Viento: SE 17 km/h
Temperatura: 39°C
Rocío: 15°C
Humedad: 24%
Barómetro: 1017 hPa
Resumen: Despejado
Visibility: greater than 10 km
2017/06/23 15:00 LERI 231500Z 14009KT 100V240 CAVOK 39/15 Q1017 NOSIG
 
LEIB - Ibiza/Es Codola, Spain
Distance from station: ENE 131km
Actualización: 23/06/2017 17:00
Despejado
Despejado
 Viento del SO
Viento: SO 19 km/h
Temperatura: 28°C
Heat Index: 30°C
Rocío: 21°C
Humedad: 66%
Barómetro: 1020 hPa
Resumen: Despejado
Visibility: greater than 10 km
2017/06/23 15:00 LEIB 231500Z 22010KT 190V250 CAVOK 28/21 Q1020 NOSIG
LEAB - Albacete (civ/Mi, Spain
Distance from station: ONO 157km
Actualización: 23/06/2017 17:00
Despejado
Despejado
 Viento del O
Viento: O 13 km/h
Temperatura: 37°C
Rocío: 6°C
Humedad: 15%
Barómetro: 1021 hPa
Resumen: Despejado
Visibility: greater than 10 km
2017/06/23 15:00 LEAB 231500Z 26007KT 200V300 CAVOK 37/06 Q1021 NOSIG